Terminal Aerodrome Forecast
Issued by NWS

Home | Current Version | Previous Version | Text Only | Print | Product List | Glossary On
Versions: 1 2 3 4 5 6 7 8 9 10 11 12 13 14 15 16 17 18 19 20 21 22 23 24 25 26 27 28
000
FTUS43 KLSX 301500 AAA
TAFCPS
TAF AMD
KCPS 301508Z 3015/3112 20007KT P6SM SCT030 BKN200
      TEMPO 3017/3019 4SM -TSRA BKN035CB
     FM301900 23011KT P6SM VCTS SCT040CB BKN100
     FM310000 19006KT P6SM SCT050 BKN120=

USA.gov is the U.S. government's official web portal to all federal, state and local government web resources and services.